createdAt,value
2024-02-13T00:00:35.705Z,4.44
2024-02-13T00:03:03.458Z,4.25
2024-02-13T00:05:30.769Z,4.38
2024-02-13T00:08:01.262Z,4.33
2024-02-13T00:10:29.654Z,4.37
2024-02-13T00:12:57.019Z,4.35
2024-02-13T00:15:24.152Z,4.37
2024-02-13T00:17:52.603Z,4.40
2024-02-13T00:20:20.695Z,4.43
2024-02-13T00:22:51.052Z,4.39
2024-02-13T00:25:19.664Z,4.38
2024-02-13T00:27:48.140Z,4.34
2024-02-13T00:30:15.839Z,4.37
2024-02-13T00:32:43.930Z,4.38
2024-02-13T00:35:11.767Z,4.37
2024-02-13T00:37:39.126Z,4.37
2024-02-13T00:40:10.877Z,4.36
2024-02-13T00:42:38.074Z,4.32
2024-02-13T00:45:08.791Z,4.33
2024-02-13T00:47:36.197Z,4.34
2024-02-13T00:50:04.150Z,4.14
2024-02-13T00:52:31.368Z,4.13
2024-02-13T00:54:59.404Z,4.22
2024-02-13T00:57:26.561Z,4.28
2024-02-13T00:59:54.201Z,4.30
2024-02-13T01:02:21.557Z,4.26
2024-02-13T01:04:49.314Z,4.29
2024-02-13T01:07:18.453Z,4.30
2024-02-13T01:09:45.840Z,4.30
2024-02-13T01:12:13.657Z,4.27
2024-02-13T01:14:40.810Z,4.29
2024-02-13T01:17:07.979Z,4.26
2024-02-13T01:19:35.144Z,4.30
2024-02-13T01:22:02.608Z,4.37
2024-02-13T01:24:30.401Z,4.28
2024-02-13T01:26:59.022Z,4.24
2024-02-13T01:29:26.593Z,4.21
2024-02-13T01:31:54.892Z,4.14
2024-02-13T01:34:22.789Z,4.14
2024-02-13T01:36:50.063Z,4.21
2024-02-13T01:39:17.096Z,4.15
2024-02-13T01:41:44.333Z,4.12
2024-02-13T01:44:11.524Z,4.10
2024-02-13T01:46:40.751Z,4.09
2024-02-13T01:49:10.214Z,4.22
2024-02-13T01:51:40.388Z,4.25
2024-02-13T01:54:11.769Z,4.27
2024-02-13T01:56:41.124Z,4.21
2024-02-13T01:59:09.382Z,4.18
2024-02-13T02:01:37.836Z,4.32
2024-02-13T02:04:07.309Z,4.33
2024-02-13T02:06:36.085Z,4.32
2024-02-13T02:09:04.682Z,4.31
2024-02-13T02:11:31.994Z,4.33
2024-02-13T02:14:01.636Z,4.40
2024-02-13T02:16:28.891Z,4.31
2024-02-13T02:18:56.845Z,4.33
2024-02-13T02:21:24.220Z,4.35
2024-02-13T02:23:51.449Z,4.20
2024-02-13T02:26:18.777Z,4.15
2024-02-13T02:28:47.466Z,4.29
2024-02-13T02:31:16.740Z,4.29
2024-02-13T02:33:45.058Z,4.32
2024-02-13T02:36:12.456Z,4.27
2024-02-13T02:38:39.823Z,4.25
2024-02-13T02:41:08.310Z,4.30
2024-02-13T02:43:38.710Z,4.30
2024-02-13T02:46:06.599Z,4.37
2024-02-13T02:48:34.504Z,4.23
2024-02-13T02:51:02.185Z,4.19
2024-02-13T02:53:29.630Z,4.28
2024-02-13T02:55:56.925Z,4.28
2024-02-13T02:58:24.842Z,4.39
2024-02-13T03:00:53.242Z,4.38
2024-02-13T03:03:23.787Z,4.37
2024-02-13T03:05:52.682Z,4.31
2024-02-13T03:08:20.397Z,4.31
2024-02-13T03:10:47.585Z,4.33
2024-02-13T03:13:15.322Z,4.37
2024-02-13T03:15:42.613Z,4.35
2024-02-13T03:18:10.868Z,4.41
2024-02-13T03:20:38.265Z,4.36
2024-02-13T03:23:05.540Z,4.36
2024-02-13T03:25:32.697Z,4.33
2024-02-13T03:27:59.891Z,4.34
2024-02-13T03:30:27.109Z,4.34
2024-02-13T03:32:54.401Z,4.37
2024-02-13T03:35:21.941Z,4.32
2024-02-13T03:37:49.060Z,4.28
2024-02-13T03:40:19.123Z,4.22
2024-02-13T03:42:46.467Z,4.25
2024-02-13T03:45:13.590Z,4.19
2024-02-13T03:47:40.795Z,4.12
2024-02-13T03:50:08.747Z,4.19
2024-02-13T03:52:37.134Z,4.17
2024-02-13T03:55:05.938Z,4.25
2024-02-13T03:57:33.167Z,4.29
2024-02-13T04:00:00.864Z,4.17
2024-02-13T04:02:28.163Z,4.27
2024-02-13T04:04:56.158Z,4.34
2024-02-13T04:07:24.226Z,4.33
2024-02-13T04:09:51.410Z,4.25
2024-02-13T04:12:18.658Z,4.25
2024-02-13T04:14:45.890Z,4.28
2024-02-13T04:17:13.822Z,4.21
2024-02-13T04:19:41.070Z,4.27
2024-02-13T04:22:09.056Z,4.24
2024-02-13T04:24:36.216Z,4.12
2024-02-13T04:27:04.158Z,4.15
2024-02-13T04:29:31.550Z,4.13
2024-02-13T04:32:00.354Z,4.09
2024-02-13T04:34:30.776Z,4.06
2024-02-13T04:36:59.084Z,3.91
2024-02-13T04:39:26.203Z,3.85
2024-02-13T04:44:21.281Z,3.93
2024-02-13T04:46:48.629Z,3.96
2024-02-13T04:49:15.969Z,3.97
2024-02-13T04:51:44.672Z,4.00
2024-02-13T04:54:11.880Z,3.85
2024-02-13T04:56:39.309Z,3.92
2024-02-13T04:59:08.806Z,3.79
2024-02-13T05:01:40.690Z,3.84
2024-02-13T05:04:17.660Z,3.82
2024-02-13T05:07:03.871Z,3.78
2024-02-13T05:09:31.076Z,3.85
2024-02-13T05:11:58.348Z,3.80
2024-02-13T05:14:25.691Z,3.85
2024-02-13T05:16:53.026Z,3.83
2024-02-13T05:19:22.248Z,3.79
2024-02-13T05:21:51.903Z,3.85
2024-02-13T05:24:19.486Z,3.76
2024-02-13T05:26:47.026Z,3.84
2024-02-13T05:29:14.894Z,3.73
2024-02-13T05:31:42.482Z,3.64
2024-02-13T05:34:11.076Z,3.83
2024-02-13T05:36:38.452Z,3.83
2024-02-13T05:39:05.725Z,3.82
2024-02-13T05:41:33.189Z,3.84
2024-02-13T05:44:04.008Z,3.87
2024-02-13T05:46:31.632Z,3.85
2024-02-13T05:49:01.723Z,3.80
2024-02-13T05:51:29.024Z,3.83
2024-02-13T05:53:56.645Z,3.85
2024-02-13T05:56:27.956Z,3.87
2024-02-13T05:58:58.817Z,3.67
2024-02-13T06:01:26.528Z,3.69
2024-02-13T06:03:57.094Z,3.67
2024-02-13T06:06:25.221Z,3.74
2024-02-13T06:08:54.530Z,3.74
2024-02-13T06:11:22.653Z,3.84
2024-02-13T06:13:50.724Z,3.85
2024-02-13T06:16:19.040Z,3.87
2024-02-13T06:18:50.169Z,3.84
2024-02-13T06:21:22.229Z,3.85
2024-02-13T06:23:51.037Z,3.83
2024-02-13T06:26:18.377Z,3.88
2024-02-13T06:28:45.762Z,3.93
2024-02-13T06:31:16.718Z,3.96
2024-02-13T06:33:44.099Z,3.92
2024-02-13T06:36:11.733Z,3.82
2024-02-13T06:38:38.978Z,3.80
2024-02-13T06:41:06.774Z,3.99
2024-02-13T06:43:34.703Z,3.95
2024-02-13T06:46:03.117Z,3.99
2024-02-13T06:48:32.048Z,3.95
2024-02-13T06:50:59.397Z,3.96
2024-02-13T06:53:26.551Z,3.98
2024-02-13T06:55:53.693Z,4.01
2024-02-13T06:58:20.988Z,3.96
2024-02-13T07:00:48.821Z,3.98
2024-02-13T07:03:16.173Z,4.03
2024-02-13T07:05:44.863Z,4.03
2024-02-13T07:08:14.884Z,4.07
2024-02-13T07:10:43.496Z,4.08
2024-02-13T07:13:10.664Z,4.09
2024-02-13T07:15:38.978Z,4.06
2024-02-13T07:18:07.643Z,4.12
2024-02-13T07:20:36.023Z,4.11
2024-02-13T07:23:04.199Z,4.19
2024-02-13T07:25:31.553Z,4.17
2024-02-13T07:27:58.813Z,4.19
2024-02-13T07:30:27.290Z,4.15
2024-02-13T07:32:55.833Z,4.19
2024-02-13T07:35:23.540Z,4.24
2024-02-13T07:37:50.916Z,4.21
2024-02-13T07:40:18.178Z,4.19
2024-02-13T07:42:45.415Z,4.25
2024-02-13T07:45:12.664Z,4.30
2024-02-13T07:47:40.731Z,4.30
2024-02-13T07:50:10.878Z,4.27
2024-02-13T07:52:38.130Z,4.35
2024-02-13T07:55:05.677Z,4.37
2024-02-13T07:57:34.577Z,4.40
2024-02-13T08:00:03.516Z,4.43
2024-02-13T08:02:30.980Z,4.51
2024-02-13T08:04:58.194Z,4.53
2024-02-13T08:07:29.409Z,4.59
2024-02-13T08:09:56.858Z,4.56
2024-02-13T08:12:25.604Z,4.65
2024-02-13T08:14:52.821Z,4.52
2024-02-13T08:17:20.103Z,4.51
2024-02-13T08:19:47.607Z,4.72
2024-02-13T08:22:19.340Z,4.54
2024-02-13T08:24:49.760Z,4.67
2024-02-13T08:27:19.375Z,4.91
2024-02-13T08:29:49.807Z,4.92
2024-02-13T08:32:17.254Z,5.05
2024-02-13T08:34:44.412Z,5.10
2024-02-13T08:37:13.864Z,5.14
2024-02-13T08:39:41.000Z,5.18
2024-02-13T08:42:08.130Z,5.22
2024-02-13T08:44:36.258Z,5.33
2024-02-13T08:47:03.907Z,5.35
2024-02-13T08:49:31.248Z,5.32
2024-02-13T08:51:58.595Z,5.38
2024-02-13T08:54:26.793Z,5.42
2024-02-13T08:56:53.983Z,5.57
2024-02-13T08:59:21.241Z,5.60
2024-02-13T09:01:48.364Z,5.66
2024-02-13T09:04:15.643Z,5.36
2024-02-13T09:06:47.890Z,5.46
2024-02-13T09:09:16.506Z,5.67
2024-02-13T09:11:43.854Z,5.60
2024-02-13T09:14:13.600Z,5.64
2024-02-13T09:16:42.331Z,5.52
2024-02-13T09:19:09.633Z,5.70
2024-02-13T09:21:36.788Z,6.07
2024-02-13T09:24:05.310Z,5.93
2024-02-13T09:26:32.731Z,6.12
2024-02-13T09:29:02.220Z,6.02
2024-02-13T09:31:29.408Z,6.05
2024-02-13T09:33:56.584Z,6.03
2024-02-13T09:36:23.864Z,5.97
2024-02-13T09:38:51.780Z,5.91
2024-02-13T09:41:19.011Z,6.12
2024-02-13T09:43:51.436Z,6.19
2024-02-13T09:46:19.774Z,6.07
2024-02-13T09:48:49.387Z,6.24
2024-02-13T09:51:21.226Z,6.30
2024-02-13T09:53:49.773Z,6.29
2024-02-13T09:56:18.683Z,6.29
2024-02-13T09:58:49.858Z,6.46
2024-02-13T10:01:17.301Z,6.29
2024-02-13T10:03:44.957Z,6.53
2024-02-13T10:06:13.037Z,6.50
2024-02-13T10:08:41.402Z,6.70
2024-02-13T10:11:13.194Z,6.72
2024-02-13T10:13:46.305Z,6.84
2024-02-13T10:16:22.102Z,7.02
2024-02-13T10:18:56.065Z,7.10
2024-02-13T10:21:28.287Z,7.05
2024-02-13T10:24:25.260Z,7.00
2024-02-13T10:26:52.557Z,7.01
2024-02-13T10:29:20.138Z,7.18
2024-02-13T10:31:47.328Z,7.27
2024-02-13T10:34:15.124Z,7.35
2024-02-13T10:36:46.025Z,7.44
2024-02-13T10:39:16.336Z,7.39
2024-02-13T10:41:46.498Z,7.46
2024-02-13T10:44:22.369Z,7.39
2024-02-13T10:46:50.572Z,7.45
2024-02-13T10:49:54.227Z,7.54
2024-02-13T10:52:24.424Z,7.74
2024-02-13T10:54:52.800Z,7.70
2024-02-13T10:57:23.837Z,7.79
2024-02-13T10:59:52.370Z,7.87
2024-02-13T11:02:20.678Z,7.89
2024-02-13T11:04:49.414Z,7.91
2024-02-13T11:07:19.068Z,8.00
2024-02-13T11:09:46.266Z,8.23
2024-02-13T11:12:14.571Z,8.24
2024-02-13T11:14:42.864Z,8.20
2024-02-13T11:17:14.491Z,8.31
2024-02-13T11:19:46.223Z,8.29
2024-02-13T11:22:16.396Z,8.24
2024-02-13T11:24:52.793Z,8.20
2024-02-13T11:27:30.873Z,8.20
2024-02-13T11:30:02.626Z,8.33
2024-02-13T11:32:34.965Z,8.29
2024-02-13T11:35:07.237Z,8.39
2024-02-13T11:37:38.221Z,8.47
2024-02-13T11:40:09.128Z,8.29
2024-02-13T11:42:36.615Z,8.38
2024-02-13T11:45:06.878Z,8.39
2024-02-13T11:47:34.647Z,8.32
2024-02-13T11:50:03.082Z,8.67
2024-02-13T11:52:30.398Z,8.59
2024-02-13T11:54:57.745Z,8.93
2024-02-13T11:57:26.251Z,8.99
2024-02-13T12:00:06.812Z,8.96
2024-02-13T12:02:34.623Z,9.13
2024-02-13T12:05:01.948Z,9.05
2024-02-13T12:07:29.180Z,9.11
2024-02-13T12:09:56.592Z,9.02
2024-02-13T12:12:25.763Z,8.76
2024-02-13T12:14:53.874Z,9.05
2024-02-13T12:17:24.253Z,9.11
2024-02-13T12:19:51.699Z,9.05
2024-02-13T12:22:19.572Z,8.93
2024-02-13T12:24:48.114Z,9.13
2024-02-13T12:27:17.363Z,9.21
2024-02-13T12:29:44.852Z,9.15
2024-02-13T12:32:21.407Z,9.06
2024-02-13T12:34:50.210Z,9.19
2024-02-13T12:37:19.899Z,9.28
2024-02-13T12:39:51.113Z,9.26
2024-02-13T12:42:21.033Z,9.24
2024-02-13T12:44:49.392Z,9.32
2024-02-13T12:47:18.676Z,9.47
2024-02-13T12:49:46.668Z,9.54
2024-02-13T12:52:23.148Z,9.62
2024-02-13T12:54:51.185Z,9.38
2024-02-13T12:57:19.628Z,9.43
2024-02-13T12:59:47.217Z,9.37
2024-02-13T13:02:15.921Z,9.31
2024-02-13T13:04:43.682Z,9.27
2024-02-13T13:07:13.729Z,9.33
2024-02-13T13:09:43.625Z,9.28
2024-02-13T13:12:13.676Z,9.24
2024-02-13T13:14:45.304Z,9.30
2024-02-13T13:17:16.295Z,9.27
2024-02-13T13:19:44.137Z,9.25
2024-02-13T13:22:13.925Z,9.21
2024-02-13T13:24:42.920Z,9.34
2024-02-13T13:27:11.241Z,9.37
2024-02-13T13:29:41.425Z,9.28
2024-02-13T13:32:10.603Z,9.42
2024-02-13T13:34:38.389Z,9.25
2024-02-13T13:37:05.826Z,9.30
2024-02-13T13:39:32.986Z,9.18
2024-02-13T13:42:08.934Z,9.06
2024-02-13T13:44:36.407Z,9.10
2024-02-13T13:47:03.505Z,8.97
2024-02-13T13:49:31.348Z,8.90
2024-02-13T13:51:58.463Z,8.98
2024-02-13T13:54:26.032Z,9.07
2024-02-13T13:56:53.277Z,9.18
2024-02-13T13:59:20.725Z,9.08
2024-02-13T14:01:47.941Z,9.12
2024-02-13T14:04:17.469Z,9.09
2024-02-13T14:06:46.043Z,9.23
2024-02-13T14:09:13.958Z,9.20
2024-02-13T14:11:41.165Z,9.35
2024-02-13T14:14:08.394Z,9.37
2024-02-13T14:16:35.763Z,9.42
2024-02-13T14:19:03.262Z,9.53
2024-02-13T14:21:30.540Z,9.56
2024-02-13T14:23:59.420Z,9.61
2024-02-13T14:26:26.935Z,9.56
2024-02-13T14:28:54.146Z,9.66
2024-02-13T14:31:21.626Z,9.64
2024-02-13T14:33:50.568Z,9.58
2024-02-13T14:36:19.440Z,9.68
2024-02-13T14:38:47.019Z,9.60
2024-02-13T14:41:16.406Z,9.63
2024-02-13T14:43:44.071Z,9.52
2024-02-13T14:46:11.361Z,9.52
2024-02-13T14:48:38.845Z,9.47
2024-02-13T14:51:07.313Z,9.52
2024-02-13T14:53:34.688Z,9.62
2024-02-13T14:56:01.978Z,9.61
2024-02-13T14:58:38.260Z,9.61
2024-02-13T15:01:10.538Z,9.58
2024-02-13T15:03:38.337Z,9.61
2024-02-13T15:06:05.840Z,9.57
2024-02-13T15:08:35.671Z,9.48
2024-02-13T15:11:05.122Z,9.42
2024-02-13T15:13:35.282Z,9.32
2024-02-13T15:16:03.556Z,9.41
2024-02-13T15:18:31.086Z,9.38
2024-02-13T15:21:01.679Z,9.34
2024-02-13T15:23:30.855Z,9.43
2024-02-13T15:25:58.846Z,9.46
2024-02-13T15:28:27.041Z,9.39
2024-02-13T15:30:54.367Z,9.53
2024-02-13T15:33:26.586Z,9.54
2024-02-13T15:36:04.240Z,9.56
2024-02-13T15:38:55.341Z,9.46
2024-02-13T15:41:40.863Z,9.50
2024-02-13T15:44:26.437Z,9.49
2024-02-13T15:46:59.836Z,9.48
2024-02-13T15:49:27.307Z,9.54
2024-02-13T15:51:55.266Z,9.45
2024-02-13T15:54:22.382Z,9.40
2024-02-13T15:56:50.395Z,9.33
2024-02-13T15:59:18.377Z,9.38
2024-02-13T16:01:47.319Z,9.36
2024-02-13T16:04:19.101Z,9.32
2024-02-13T16:06:48.289Z,9.26
2024-02-13T16:09:19.358Z,9.30
2024-02-13T16:11:47.056Z,9.24
2024-02-13T16:14:14.370Z,9.29
2024-02-13T16:16:41.516Z,9.33
2024-02-13T16:19:10.357Z,9.26
2024-02-13T16:21:37.639Z,9.22
2024-02-13T16:24:05.444Z,9.22
2024-02-13T16:26:33.312Z,9.24
2024-02-13T16:29:00.776Z,9.21
2024-02-13T16:31:28.259Z,9.17
2024-02-13T16:33:55.455Z,9.15
2024-02-13T16:36:23.726Z,9.13
2024-02-13T16:38:51.030Z,9.11
2024-02-13T16:41:19.788Z,9.08
2024-02-13T16:43:50.301Z,8.98
2024-02-13T16:46:22.611Z,8.93
2024-02-13T16:48:54.641Z,8.95
2024-02-13T16:51:22.855Z,8.97
2024-02-13T16:53:50.226Z,8.75
2024-02-13T16:56:18.296Z,8.77
2024-02-13T16:58:46.129Z,8.65
2024-02-13T17:01:16.157Z,8.78
2024-02-13T17:03:47.918Z,8.79
2024-02-13T17:06:15.891Z,8.72
2024-02-13T17:08:43.934Z,8.46
2024-02-13T17:11:11.265Z,8.51
2024-02-13T17:13:38.329Z,8.61
2024-02-13T17:16:08.340Z,8.59
2024-02-13T17:18:35.644Z,8.61
2024-02-13T17:21:02.935Z,8.47
2024-02-13T17:23:30.099Z,8.32
2024-02-13T17:25:57.294Z,8.23
2024-02-13T17:28:24.490Z,8.27
2024-02-13T17:30:52.163Z,8.19
2024-02-13T17:33:19.431Z,8.19
2024-02-13T17:35:47.386Z,7.98
2024-02-13T17:38:14.608Z,8.11
2024-02-13T17:40:42.040Z,7.99
2024-02-13T17:43:13.340Z,7.89
2024-02-13T17:45:41.618Z,7.99
2024-02-13T17:48:10.859Z,8.01
2024-02-13T17:50:38.274Z,8.04
2024-02-13T17:53:05.416Z,8.02
2024-02-13T17:55:32.620Z,8.04
2024-02-13T17:57:59.761Z,8.04
2024-02-13T18:00:27.457Z,7.98
2024-02-13T18:02:55.007Z,7.93
2024-02-13T18:05:22.330Z,7.92
2024-02-13T18:07:49.585Z,7.93
2024-02-13T18:10:19.733Z,7.89
2024-02-13T18:12:50.086Z,7.92
2024-02-13T18:15:17.815Z,7.90
2024-02-13T18:17:46.413Z,7.88
2024-02-13T18:20:16.041Z,7.85
2024-02-13T18:22:45.483Z,7.85
2024-02-13T18:25:15.249Z,7.82
2024-02-13T18:27:42.631Z,7.82
2024-02-13T18:30:10.042Z,7.78
2024-02-13T18:32:37.424Z,7.79
2024-02-13T18:35:04.900Z,7.78
2024-02-13T18:37:31.988Z,7.80
2024-02-13T18:39:59.095Z,7.76
2024-02-13T18:42:26.226Z,7.76
2024-02-13T18:44:54.091Z,7.76
2024-02-13T18:47:21.240Z,7.72
2024-02-13T18:49:48.738Z,7.72
2024-02-13T18:52:16.124Z,7.68
2024-02-13T18:54:44.057Z,7.65
2024-02-13T18:57:15.293Z,7.66
2024-02-13T18:59:43.408Z,7.64
2024-02-13T19:02:11.608Z,7.57
2024-02-13T19:04:39.897Z,7.56
2024-02-13T19:07:07.210Z,7.53
2024-02-13T19:09:34.470Z,7.59
2024-02-13T19:12:06.404Z,7.59
2024-02-13T19:14:33.612Z,7.60
2024-02-13T19:17:00.906Z,7.58
2024-02-13T19:19:28.135Z,7.58
2024-02-13T19:21:55.222Z,7.62
2024-02-13T19:24:23.112Z,7.65
2024-02-13T19:26:51.220Z,7.64
2024-02-13T19:29:18.371Z,7.58
2024-02-13T19:31:45.962Z,7.46
2024-02-13T19:34:13.670Z,7.64
2024-02-13T19:36:41.227Z,7.71
2024-02-13T19:39:08.611Z,7.67
2024-02-13T19:41:35.807Z,7.70
2024-02-13T19:44:03.329Z,7.71
2024-02-13T19:46:30.692Z,7.71
2024-02-13T19:48:57.955Z,7.73
2024-02-13T19:51:25.055Z,7.72
2024-02-13T19:53:54.360Z,7.71
2024-02-13T19:56:21.532Z,7.75
2024-02-13T19:58:48.678Z,7.72
2024-02-13T20:01:16.788Z,7.74
2024-02-13T20:03:44.163Z,7.72
2024-02-13T20:06:11.331Z,7.70
2024-02-13T20:08:40.029Z,7.75
2024-02-13T20:11:07.426Z,7.76
2024-02-13T20:13:38.933Z,7.75
2024-02-13T20:16:06.197Z,7.66
2024-02-13T20:18:34.286Z,7.79
2024-02-13T20:21:05.093Z,7.69
2024-02-13T20:23:35.964Z,7.68
2024-02-13T20:26:03.309Z,7.70
2024-02-13T20:28:30.420Z,7.69
2024-02-13T20:30:57.598Z,7.78
2024-02-13T20:33:27.217Z,7.76
2024-02-13T20:36:00.284Z,7.79
2024-02-13T20:38:27.862Z,7.87
2024-02-13T20:40:57.081Z,7.86
2024-02-13T20:43:24.899Z,7.97
2024-02-13T20:45:52.393Z,8.01
2024-02-13T20:48:20.114Z,8.03
2024-02-13T20:50:47.799Z,8.06
2024-02-13T20:53:15.639Z,8.03
2024-02-13T20:55:45.231Z,8.03
2024-02-13T20:58:15.456Z,8.11
2024-02-13T21:00:44.823Z,8.13
2024-02-13T21:03:12.281Z,8.15
2024-02-13T21:05:42.780Z,8.17
2024-02-13T21:08:10.242Z,8.15
2024-02-13T21:10:37.746Z,8.20
2024-02-13T21:13:05.448Z,8.14
2024-02-13T21:15:34.944Z,8.18
2024-02-13T21:18:02.509Z,8.19
2024-02-13T21:20:31.325Z,8.16
2024-02-13T21:23:24.431Z,8.24
2024-02-13T21:25:51.548Z,8.23
2024-02-13T21:28:19.119Z,8.23
2024-02-13T21:30:46.331Z,8.14
2024-02-13T21:33:13.710Z,8.18
2024-02-13T21:35:41.074Z,8.21
2024-02-13T21:38:09.737Z,8.40
2024-02-13T21:40:38.908Z,8.44
2024-02-13T21:43:06.306Z,8.43
2024-02-13T21:45:34.026Z,8.47
2024-02-13T21:48:01.305Z,8.44
2024-02-13T21:50:29.746Z,8.35
2024-02-13T21:52:56.949Z,8.22
2024-02-13T21:55:24.132Z,8.21
2024-02-13T21:57:51.524Z,8.17
2024-02-13T22:00:18.889Z,8.11
2024-02-13T22:02:46.610Z,8.04
2024-02-13T22:05:15.331Z,7.98
2024-02-13T22:07:43.345Z,8.00
2024-02-13T22:10:13.370Z,7.86
2024-02-13T22:12:42.974Z,7.89
2024-02-13T22:15:11.873Z,7.75
2024-02-13T22:17:39.504Z,7.75
2024-02-13T22:20:08.649Z,7.79
2024-02-13T22:22:35.933Z,7.80
2024-02-13T22:25:03.504Z,7.75
2024-02-13T22:27:30.739Z,7.74
2024-02-13T22:29:58.762Z,7.64
2024-02-13T22:32:26.262Z,7.58
2024-02-13T22:34:57.654Z,7.68
2024-02-13T22:37:25.936Z,7.59
2024-02-13T22:39:53.223Z,7.73
2024-02-13T22:42:20.340Z,7.71
2024-02-13T22:44:47.506Z,7.70
2024-02-13T22:47:14.786Z,7.67
2024-02-13T22:49:42.221Z,7.67
2024-02-13T22:52:09.358Z,7.68
2024-02-13T22:54:36.468Z,7.68
2024-02-13T22:57:05.407Z,7.74
2024-02-13T22:59:34.965Z,7.60
2024-02-13T23:02:04.312Z,7.54
2024-02-13T23:04:31.536Z,7.56
2024-02-13T23:06:59.893Z,7.76
2024-02-13T23:09:27.224Z,7.75
2024-02-13T23:11:54.701Z,7.67
2024-02-13T23:14:22.235Z,7.74
2024-02-13T23:16:49.454Z,7.73
2024-02-13T23:19:19.628Z,7.80
2024-02-13T23:21:47.638Z,7.75
2024-02-13T23:24:16.208Z,7.83
2024-02-13T23:26:43.818Z,7.87
2024-02-13T23:29:12.643Z,7.84
2024-02-13T23:31:40.338Z,7.88
2024-02-13T23:34:10.425Z,7.89
2024-02-13T23:36:37.750Z,7.92
2024-02-13T23:39:05.005Z,7.92
2024-02-13T23:41:32.227Z,7.90
2024-02-13T23:43:59.537Z,7.81
2024-02-13T23:46:26.876Z,7.93
2024-02-13T23:48:54.338Z,7.98
2024-02-13T23:51:21.751Z,7.90
2024-02-13T23:53:50.026Z,7.86
2024-02-13T23:56:18.741Z,7.89
2024-02-13T23:58:47.561Z,7.95
